Time;durP1;ratioP1;P1;durP2;ratioP2;P2;SDS_P1;SDS_P2;PMS_P1;PMS_P2;Temp;Humidity;BMP_temperature;BMP_pressure;BME280_temperature;BME280_humidity;BME280_pressure;Samples;Min_cycle;Max_cycle;Signal;HPM_P1;HPM_P2
2022/04/05 00:00:24;;;;;;;29.33;4.23;;;14.60;93.60;;;;;;4973934;28;20201;-67
2022/04/05 00:02:51;;;;;;;25.30;3.87;;;14.60;93.90;;;;;;4980523;28;20217;-66
2022/04/05 00:05:22;;;;;;;27.70;3.53;;;14.60;94.00;;;;;;4987581;28;20200;-67
2022/04/05 00:07:50;;;;;;;23.20;3.40;;;14.60;94.10;;;;;;4972152;28;20506;-68
2022/04/05 00:10:18;;;;;;;21.33;3.57;;;14.60;94.50;;;;;;4990632;28;20189;-68
2022/04/05 00:12:47;;;;;;;30.37;4.37;;;14.60;94.60;;;;;;4990393;28;20201;-68
2022/04/05 00:15:15;;;;;;;30.47;4.73;;;14.50;94.60;;;;;;4972469;28;20198;-67
2022/04/05 00:17:42;;;;;;;30.80;4.63;;;14.40;94.40;;;;;;4986928;28;20340;-67
2022/04/05 00:20:10;;;;;;;36.87;4.77;;;14.40;94.20;;;;;;4979281;28;20202;-67
2022/04/05 00:22:37;;;;;;;31.57;4.33;;;14.40;94.30;;;;;;4985383;28;20266;-70
2022/04/05 00:25:06;;;;;;;30.57;4.17;;;14.40;94.60;;;;;;4990402;28;20854;-67
2022/04/05 00:27:34;;;;;;;25.90;4.57;;;14.30;94.70;;;;;;4968445;28;20900;-68
2022/04/05 00:30:01;;;;;;;28.23;4.70;;;14.30;94.80;;;;;;4984242;28;20212;-70
2022/04/05 00:32:28;;;;;;;31.70;4.53;;;14.30;95.00;;;;;;4986606;28;20562;-70
2022/04/05 00:34:54;;;;;;;28.10;4.77;;;14.30;95.20;;;;;;4990030;28;20190;-69
2022/04/05 00:37:21;;;;;;;31.63;3.60;;;14.30;95.40;;;;;;4988258;28;20209;-69
2022/04/05 00:39:50;;;;;;;25.50;4.33;;;14.30;95.40;;;;;;4986838;28;20194;-69
2022/04/05 00:42:18;;;;;;;24.23;4.03;;;14.30;95.30;;;;;;4962522;28;20230;-70
2022/04/05 00:44:44;;;;;;;33.10;4.67;;;14.30;95.40;;;;;;4986197;28;20189;-66
2022/04/05 00:47:23;;;;;;;29.70;4.90;;;14.20;95.70;;;;;;4983261;28;20197;-69
2022/04/05 00:49:53;;;;;;;32.80;4.63;;;14.20;95.80;;;;;;5001475;28;20184;-69
2022/04/05 00:52:22;;;;;;;25.03;4.47;;;14.20;95.70;;;;;;4989765;28;20752;-69
2022/04/05 00:54:52;;;;;;;24.93;4.47;;;14.20;95.90;;;;;;4990352;28;20185;-70
2022/04/05 00:57:22;;;;;;;27.57;4.20;;;14.20;96.10;;;;;;4979509;28;20558;-66
2022/04/05 00:59:56;;;;;;;33.30;4.20;;;14.20;96.30;;;;;;4985864;28;20185;-69
2022/04/05 01:02:27;;;;;;;24.50;4.07;;;14.20;96.40;;;;;;4990644;28;20376;-66
2022/04/05 01:04:55;;;;;;;27.53;4.10;;;14.10;96.70;;;;;;4972910;28;20193;-68
2022/04/05 01:07:23;;;;;;;27.60;5.00;;;14.10;96.70;;;;;;4985468;28;20565;-70
2022/04/05 01:09:53;;;;;;;29.60;4.37;;;14.10;96.60;;;;;;4984172;28;20709;-69
2022/04/05 01:12:22;;;;;;;29.27;5.63;;;14.10;97.00;;;;;;4989214;28;20220;-69
2022/04/05 01:14:50;;;;;;;28.97;4.80;;;14.00;97.20;;;;;;4987458;28;20212;-68
2022/04/05 01:17:17;;;;;;;30.93;5.00;;;14.00;97.00;;;;;;4988509;28;20216;-68
2022/04/05 01:19:48;;;;;;;27.50;4.60;;;14.00;97.00;;;;;;4988236;28;20597;-70
2022/04/05 01:22:15;;;;;;;30.60;4.73;;;14.00;97.10;;;;;;4979061;28;20213;-66
2022/04/05 01:24:42;;;;;;;25.35;4.25;;;14.00;96.90;;;;;;4988743;28;20547;-69
2022/04/05 01:27:16;;;;;;;32.77;4.70;;;14.00;97.00;;;;;;4968798;28;20240;-69
2022/04/05 01:29:43;;;;;;;44.63;5.57;;;14.00;97.40;;;;;;4987526;28;20650;-69
2022/04/05 01:32:10;;;;;;;31.50;5.40;;;13.90;97.20;;;;;;4987310;28;20189;-68
2022/04/05 01:34:39;;;;;;;33.17;5.07;;;13.90;97.20;;;;;;4990935;28;20190;-68
2022/04/05 01:37:10;;;;;;;34.30;4.60;;;13.90;97.30;;;;;;4964187;28;20190;-70
2022/04/05 01:39:39;;;;;;;40.67;4.77;;;13.90;97.20;;;;;;5004632;28;20181;-70
2022/04/05 01:42:12;;;;;;;40.27;4.67;;;13.90;97.40;;;;;;4986632;28;20293;-69
2022/04/05 01:44:43;;;;;;;34.30;4.50;;;13.90;97.20;;;;;;4985801;28;20190;-70
2022/04/05 01:47:15;;;;;;;21.80;4.23;;;13.90;97.70;;;;;;4988604;28;20217;-70
2022/04/05 01:49:45;;;;;;;27.03;4.83;;;13.90;97.30;;;;;;4990414;28;20665;-71
2022/04/05 01:52:12;;;;;;;26.20;4.10;;;14.00;97.00;;;;;;4989253;28;20688;-70
2022/04/05 01:54:40;;;;;;;24.97;3.97;;;14.00;97.90;;;;;;4993405;28;20717;-70
2022/04/05 01:57:08;;;;;;;31.23;4.17;;;14.10;98.70;;;;;;4988969;28;20212;-70
2022/04/05 01:59:38;;;;;;;27.60;4.77;;;14.00;95.00;;;;;;4991711;28;20193;-70
2022/04/05 02:02:09;;;;;;;35.00;4.60;;;14.00;95.50;;;;;;4992183;28;20732;-70
2022/04/05 02:04:36;;;;;;;35.70;5.10;;;14.00;95.80;;;;;;4984403;28;20231;-70
2022/04/05 02:07:12;;;;;;;33.60;5.53;;;13.90;96.00;;;;;;4981809;28;20606;-70
2022/04/05 02:09:39;;;;;;;36.53;5.23;;;13.90;96.10;;;;;;4983254;28;20182;-70
2022/04/05 02:12:09;;;;;;;30.63;4.83;;;13.90;96.00;;;;;;4974569;28;20196;-70
2022/04/05 02:14:37;;;;;;;36.47;4.20;;;13.90;96.30;;;;;;4968521;28;20189;-70
2022/04/05 02:17:09;;;;;;;31.30;4.00;;;13.90;96.20;;;;;;4980900;28;20262;-68
2022/04/05 02:19:38;;;;;;;22.17;3.93;;;13.90;95.90;;;;;;4986978;28;20799;-68
2022/04/05 02:22:05;;;;;;;33.73;4.93;;;14.00;95.80;;;;;;4984054;28;20206;-68
2022/04/05 02:24:31;;;;;;;37.57;5.20;;;14.00;95.90;;;;;;4983274;28;20248;-69
2022/04/05 02:26:58;;;;;;;26.27;5.13;;;14.00;95.70;;;;;;4986431;28;20545;-68
2022/04/05 02:29:24;;;;;;;28.73;4.17;;;14.00;95.20;;;;;;4977331;28;20653;-68
2022/04/05 02:31:50;;;;;;;40.50;5.23;;;14.10;95.60;;;;;;4989064;28;20225;-70
2022/04/05 02:34:18;;;;;;;25.80;4.67;;;14.10;95.40;;;;;;4984832;28;20205;-70
2022/04/05 02:36:45;;;;;;;33.60;4.63;;;14.10;95.40;;;;;;4988974;28;20557;-70
2022/04/05 02:39:12;;;;;;;30.30;3.70;;;14.20;95.60;;;;;;4991958;28;20221;-70
2022/04/05 02:41:39;;;;;;;22.50;4.27;;;14.20;95.30;;;;;;4990859;28;20186;-70
2022/04/05 02:44:06;;;;;;;45.43;5.77;;;14.30;95.70;;;;;;4991604;28;20289;-70
2022/04/05 02:46:33;;;;;;;29.73;4.83;;;14.30;96.20;;;;;;4974852;28;20673;-69
2022/04/05 02:49:00;;;;;;;36.77;4.67;;;14.20;96.70;;;;;;4988504;28;20182;-69
2022/04/05 02:51:26;;;;;;;39.03;5.53;;;14.20;94.40;;;;;;4983967;28;20202;-69
2022/04/05 02:53:53;;;;;;;35.77;5.23;;;14.20;94.50;;;;;;4989160;28;20197;-69
2022/04/05 02:56:19;;;;;;;25.47;5.30;;;14.20;94.80;;;;;;4993369;28;20201;-70
2022/04/05 02:58:48;;;;;;;31.27;5.20;;;14.10;94.90;;;;;;4986120;28;20219;-69
2022/04/05 03:01:15;;;;;;;41.67;4.77;;;14.00;95.20;;;;;;4991703;28;20190;-69
2022/04/05 03:03:41;;;;;;;35.90;5.10;;;14.00;94.60;;;;;;4986752;28;20226;-69
2022/04/05 03:06:10;;;;;;;31.17;4.63;;;14.10;94.80;;;;;;4987918;28;20181;-69
2022/04/05 03:08:38;;;;;;;38.93;4.60;;;14.10;95.00;;;;;;4982967;28;20642;-69
2022/04/05 03:11:05;;;;;;;41.13;5.73;;;14.10;94.90;;;;;;5000125;28;20192;-70
2022/04/05 03:13:32;;;;;;;29.63;4.47;;;14.10;95.00;;;;;;4969067;28;20187;-70
2022/04/05 03:15:59;;;;;;;37.47;5.10;;;14.00;95.30;;;;;;4991044;28;20543;-69
2022/04/05 03:18:27;;;;;;;42.77;5.90;;;14.00;95.30;;;;;;4974871;28;20202;-70
2022/04/05 03:20:54;;;;;;;30.87;4.93;;;14.00;95.00;;;;;;4978786;28;20196;-70
2022/04/05 03:23:21;;;;;;;34.70;5.27;;;14.00;95.20;;;;;;5005825;28;20594;-70
2022/04/05 03:25:49;;;;;;;33.57;5.23;;;14.00;95.20;;;;;;4990741;28;20194;-70
2022/04/05 03:28:18;;;;;;;31.97;5.10;;;14.00;95.40;;;;;;4990027;28;20181;-69
2022/04/05 03:30:47;;;;;;;40.00;5.03;;;13.90;95.40;;;;;;4990751;28;20256;-70
2022/04/05 03:33:15;;;;;;;40.10;4.57;;;13.90;95.70;;;;;;4990093;28;21570;-70
2022/04/05 03:35:42;;;;;;;42.03;5.37;;;13.90;95.60;;;;;;4966470;28;20198;-70
2022/04/05 03:38:09;;;;;;;40.70;5.17;;;13.90;95.50;;;;;;4969614;28;20201;-70
2022/04/05 03:40:35;;;;;;;34.00;4.57;;;13.90;95.50;;;;;;4990202;28;20313;-69
2022/04/05 03:43:03;;;;;;;43.07;4.67;;;13.90;95.80;;;;;;4991394;28;20217;-70
2022/04/05 03:45:29;;;;;;;27.37;4.60;;;13.90;96.00;;;;;;4986221;28;20209;-68
2022/04/05 03:47:56;;;;;;;38.23;5.10;;;13.90;96.00;;;;;;4988484;28;20193;-69
2022/04/05 03:50:22;;;;;;;33.13;4.80;;;13.90;96.40;;;;;;4966699;28;20190;-66
2022/04/05 03:52:49;;;;;;;30.10;4.60;;;13.80;96.20;;;;;;4967542;28;20224;-69
2022/04/05 03:55:16;;;;;;;42.40;4.93;;;13.90;96.50;;;;;;4985897;28;20197;-68
2022/04/05 03:57:43;;;;;;;37.03;5.43;;;13.90;96.50;;;;;;4973684;28;20216;-68
2022/04/05 04:00:09;;;;;;;31.83;5.33;;;13.90;96.70;;;;;;4990526;28;20204;-66
2022/04/05 04:02:36;;;;;;;30.53;4.57;;;14.00;96.70;;;;;;4976917;28;20210;-68
2022/04/05 04:05:04;;;;;;;37.13;5.70;;;14.00;97.10;;;;;;4970968;28;20593;-68
2022/04/05 04:07:38;;;;;;;29.97;4.97;;;14.00;97.00;;;;;;4973509;28;20201;-68
2022/04/05 04:10:05;;;;;;;34.93;4.93;;;14.10;97.60;;;;;;4990635;28;20188;-69
2022/04/05 04:12:32;;;;;;;29.10;5.00;;;14.10;98.40;;;;;;4987247;28;20197;-70
2022/04/05 04:14:59;;;;;;;31.80;5.13;;;14.10;98.50;;;;;;4989343;28;20218;-70
2022/04/05 04:17:26;;;;;;;31.37;4.60;;;14.10;98.80;;;;;;4989735;28;20275;-70
2022/04/05 04:19:53;;;;;;;28.07;4.87;;;14.10;98.90;;;;;;4985944;28;20526;-70
2022/04/05 04:22:19;;;;;;;39.03;5.83;;;14.10;99.20;;;;;;4991535;28;20209;-70
2022/04/05 04:24:46;;;;;;;30.63;4.77;;;14.20;99.20;;;;;;4985991;28;20190;-68
2022/04/05 04:27:12;;;;;;;34.83;4.50;;;14.20;98.70;;;;;;4985004;28;20768;-68
2022/04/05 04:29:39;;;;;;;38.93;5.00;;;14.30;99.20;;;;;;4966257;28;20269;-69
2022/04/05 04:32:07;;;;;;;30.23;4.17;;;14.40;99.30;;;;;;4984771;28;20209;-68
2022/04/05 04:34:34;;;;;;;32.47;4.73;;;14.50;99.60;;;;;;4985362;28;21050;-68
2022/04/05 04:37:04;;;;;;;34.73;4.60;;;14.60;99.60;;;;;;4988433;28;20194;-69
2022/04/05 04:39:31;;;;;;;39.20;4.73;;;14.70;99.90;;;;;;4986977;28;20378;-68
2022/04/05 04:41:58;;;;;;;31.63;4.83;;;14.70;99.90;;;;;;4986762;28;20216;-68
2022/04/05 04:44:25;;;;;;;23.07;3.80;;;14.80;99.90;;;;;;4983769;28;20269;-69
2022/04/05 04:46:53;;;;;;;28.63;4.77;;;14.80;99.90;;;;;;4985988;28;20193;-68
2022/04/05 04:49:19;;;;;;;34.30;4.67;;;14.80;99.90;;;;;;4966686;28;20181;-69
2022/04/05 04:51:46;;;;;;;26.20;4.47;;;14.90;99.90;;;;;;4988583;28;20194;-69
2022/04/05 04:54:15;;;;;;;35.63;4.73;;;15.00;99.90;;;;;;4986831;28;20371;-69
2022/04/05 04:56:42;;;;;;;30.83;4.30;;;15.00;99.90;;;;;;4970993;28;20248;-70
2022/04/05 04:59:09;;;;;;;32.13;4.70;;;15.10;99.90;;;;;;4971301;28;20232;-70
2022/04/05 05:01:36;;;;;;;24.00;4.73;;;15.10;99.90;;;;;;4972415;28;20209;-70
2022/04/05 05:04:02;;;;;;;27.23;4.33;;;15.10;99.90;;;;;;4987667;28;20181;-69
2022/04/05 05:06:30;;;;;;;25.67;4.47;;;15.10;99.90;;;;;;4975674;28;20185;-69
2022/04/05 05:08:58;;;;;;;22.87;4.40;;;15.20;99.90;;;;;;4989036;28;20189;-69
2022/04/05 05:11:27;;;;;;;27.93;5.03;;;15.20;99.90;;;;;;4974447;28;20181;-68
2022/04/05 05:13:54;;;;;;;29.70;4.67;;;15.30;99.90;;;;;;4993397;28;20190;-70
2022/04/05 05:16:25;;;;;;;25.03;4.03;;;15.40;99.90;;;;;;4971602;28;20205;-71
2022/04/05 05:18:51;;;;;;;24.70;4.87;;;15.50;99.90;;;;;;4992713;28;20197;-70
2022/04/05 05:21:19;;;;;;;28.23;5.20;;;15.60;99.90;;;;;;4988032;28;20194;-71
2022/04/05 05:23:47;;;;;;;30.57;4.80;;;15.70;99.90;;;;;;4976043;28;20209;-71
2022/04/05 05:26:15;;;;;;;31.70;4.23;;;15.80;99.90;;;;;;4985758;28;20388;-71
2022/04/05 05:28:42;;;;;;;29.53;4.80;;;15.80;99.90;;;;;;4986387;28;20190;-70
2022/04/05 05:31:08;;;;;;;24.33;4.50;;;15.90;99.90;;;;;;4989309;28;20332;-70
2022/04/05 05:33:36;;;;;;;30.00;3.83;;;16.00;99.90;;;;;;4988609;28;20249;-70
2022/04/05 05:36:02;;;;;;;25.97;4.80;;;16.00;99.90;;;;;;5006168;28;20676;-70
2022/04/05 05:38:29;;;;;;;29.97;4.67;;;16.10;99.90;;;;;;4989098;28;20919;-70
2022/04/05 05:40:56;;;;;;;23.63;4.33;;;16.20;99.90;;;;;;4987049;28;20251;-70
2022/04/05 05:43:24;;;;;;;24.17;4.37;;;16.20;99.90;;;;;;4990073;28;20224;-70
2022/04/05 05:45:52;;;;;;;27.83;4.77;;;16.30;99.90;;;;;;4974651;28;20185;-70
2022/04/05 05:48:18;;;;;;;20.70;4.33;;;16.30;99.90;;;;;;4990720;28;20253;-69
2022/04/05 05:50:46;;;;;;;18.17;4.00;;;16.40;99.90;;;;;;4984200;28;20190;-69
2022/04/05 05:53:13;;;;;;;26.27;4.70;;;16.40;99.90;;;;;;4978528;28;20235;-69
2022/04/05 05:55:40;;;;;;;23.73;4.10;;;16.50;99.90;;;;;;4981482;28;20654;-69
2022/04/05 05:58:06;;;;;;;21.53;3.97;;;16.60;99.90;;;;;;4969217;28;20185;-69
2022/04/05 06:00:33;;;;;;;26.40;4.23;;;16.70;99.90;;;;;;4994459;28;20454;-69
2022/04/05 06:03:02;;;;;;;29.27;4.80;;;16.70;99.90;;;;;;5006116;28;20617;-69
2022/04/05 06:05:30;;;;;;;29.03;4.23;;;16.80;99.90;;;;;;4986310;28;20185;-69
2022/04/05 06:07:58;;;;;;;20.17;4.30;;;16.80;99.90;;;;;;4985138;28;20190;-69
2022/04/05 06:10:25;;;;;;;24.10;4.70;;;16.90;99.90;;;;;;4984562;28;20241;-70
2022/04/05 06:12:55;;;;;;;22.70;3.87;;;16.90;99.90;;;;;;4983351;28;20185;-69
2022/04/05 06:15:25;;;;;;;25.53;5.03;;;17.00;99.90;;;;;;4983806;28;20303;-68
2022/04/05 06:17:53;;;;;;;24.33;4.10;;;17.10;99.90;;;;;;4973958;28;20546;-69
2022/04/05 06:20:21;;;;;;;26.57;4.37;;;17.20;99.90;;;;;;4975977;28;20197;-67
2022/04/05 06:22:54;;;;;;;26.17;4.53;;;17.20;99.90;;;;;;4992442;28;20605;-69
2022/04/05 06:25:32;;;;;;;23.20;3.57;;;17.30;99.90;;;;;;4992418;28;20182;-67
2022/04/05 06:28:01;;;;;;;28.17;4.70;;;17.30;99.90;;;;;;4986444;28;20189;-67
2022/04/05 06:30:32;;;;;;;22.27;4.70;;;17.40;99.90;;;;;;4982432;28;20257;-67
2022/04/05 06:33:19;;;;;;;24.83;5.03;;;17.50;99.90;;;;;;4993781;28;20197;-67
2022/04/05 06:35:50;;;;;;;40.07;4.70;;;17.60;99.90;;;;;;4973215;28;20568;-67
2022/04/05 06:38:17;;;;;;;34.17;5.17;;;17.70;99.90;;;;;;4985650;28;20238;-69
2022/04/05 06:40:45;;;;;;;34.10;5.63;;;;;;;;;;4996234;28;20200;-69
2022/04/05 06:43:20;;;;;;;29.77;4.67;;;17.80;99.90;;;;;;4988792;28;20225;-70
2022/04/05 06:45:51;;;;;;;26.50;4.67;;;17.80;99.90;;;;;;4962321;28;20249;-70
2022/04/05 06:48:21;;;;;;;26.27;5.50;;;17.90;99.90;;;;;;4991956;28;20181;-68
2022/04/05 06:50:50;;;;;;;37.40;5.23;;;18.00;99.90;;;;;;4991455;28;20220;-70
2022/04/05 06:53:18;;;;;;;29.17;4.27;;;18.00;99.90;;;;;;4991738;28;20276;-70
2022/04/05 06:55:44;;;;;;;29.30;5.63;;;18.20;99.90;;;;;;4991101;28;20209;-69
2022/04/05 06:58:11;;;;;;;26.77;4.87;;;18.30;99.90;;;;;;4970773;28;20273;-70
2022/04/05 07:00:39;;;;;;;34.10;5.13;;;18.30;99.90;;;;;;4976975;28;20708;-70
2022/04/05 07:03:06;;;;;;;39.23;5.20;;;18.30;99.90;;;;;;4991628;28;20227;-70
2022/04/05 07:05:33;;;;;;;31.67;4.97;;;18.40;99.90;;;;;;4992747;28;20458;-70
2022/04/05 07:08:04;;;;;;;32.07;5.60;;;18.40;99.90;;;;;;4972484;28;20341;-69
2022/04/05 07:10:40;;;;;;;32.53;5.70;;;18.50;99.90;;;;;;4974477;28;20189;-71
2022/04/05 07:13:09;;;;;;;39.40;6.17;;;18.50;99.90;;;;;;4989058;28;20208;-71
2022/04/05 07:15:35;;;;;;;40.17;6.33;;;18.70;99.90;;;;;;4975160;28;20209;-70
2022/04/05 07:18:01;;;;;;;41.93;6.03;;;18.70;99.90;;;;;;4985680;28;20267;-69
2022/04/05 07:20:28;;;;;;;47.80;6.67;;;18.70;99.90;;;;;;4976376;28;20289;-69
2022/04/05 07:22:54;;;;;;;44.50;5.80;;;18.80;99.90;;;;;;4991497;28;20216;-69
2022/04/05 07:25:21;;;;;;;39.77;6.17;;;18.90;99.90;;;;;;4989186;28;20194;-71
2022/04/05 07:27:49;;;;;;;29.00;5.87;;;19.00;99.90;;;;;;4989168;28;20186;-67
2022/04/05 07:30:16;;;;;;;39.33;6.30;;;19.00;99.90;;;;;;4990499;28;20185;-68
2022/04/05 07:32:44;;;;;;;36.97;6.10;;;19.00;99.90;;;;;;4988797;28;20194;-66
2022/04/05 07:35:15;;;;;;;30.90;6.53;;;19.00;99.90;;;;;;4973870;28;20633;-66
2022/04/05 07:37:42;;;;;;;31.93;5.50;;;19.00;99.90;;;;;;4989265;28;20185;-65
2022/04/05 07:40:13;;;;;;;42.63;6.13;;;19.10;99.90;;;;;;4991446;28;20262;-66
2022/04/05 07:42:42;;;;;;;44.17;6.23;;;19.10;99.90;;;;;;4975978;28;20205;-65
2022/04/05 07:45:10;;;;;;;37.63;5.47;;;19.20;99.90;;;;;;4994398;28;20271;-65
2022/04/05 07:47:37;;;;;;;32.53;5.67;;;19.30;99.90;;;;;;4989463;28;20207;-65
2022/04/05 07:50:08;;;;;;;38.97;6.13;;;19.40;99.90;;;;;;4991693;28;20613;-66
2022/04/05 07:52:35;;;;;;;45.67;6.47;;;19.40;99.90;;;;;;4997692;28;20649;-66
2022/04/05 07:55:03;;;;;;;43.53;6.37;;;19.60;99.90;;;;;;4973132;28;20236;-66
2022/04/05 07:57:40;;;;;;;44.03;7.97;;;19.60;99.90;;;;;;4989031;28;20704;-65
2022/04/05 08:00:08;;;;;;;29.23;6.77;;;19.70;99.90;;;;;;4982512;28;20196;-66
2022/04/05 08:02:35;;;;;;;39.33;6.70;;;19.70;99.90;;;;;;4993469;28;20692;-66
2022/04/05 08:05:02;;;;;;;48.90;6.60;;;19.80;99.90;;;;;;4971585;28;20189;-67
2022/04/05 08:07:30;;;;;;;50.17;7.07;;;19.80;99.90;;;;;;4969287;28;20182;-66
2022/04/05 08:09:58;;;;;;;46.27;6.50;;;19.90;99.90;;;;;;4979647;28;20182;-65
2022/04/05 08:12:24;;;;;;;41.97;6.57;;;20.00;99.90;;;;;;4974475;28;20189;-65
2022/04/05 08:14:51;;;;;;;35.53;6.63;;;20.10;99.90;;;;;;4984620;28;20646;-65
2022/04/05 08:17:17;;;;;;;40.40;6.13;;;20.10;99.90;;;;;;4970309;28;20253;-66
2022/04/05 08:19:44;;;;;;;42.17;7.23;;;20.20;99.90;;;;;;4969142;28;20295;-66
2022/04/05 08:22:10;;;;;;;47.97;6.93;;;20.20;99.90;;;;;;4988915;28;20206;-66
2022/04/05 08:24:37;;;;;;;46.03;6.47;;;20.30;99.90;;;;;;4986819;28;20208;-66
2022/04/05 08:27:04;;;;;;;35.30;6.73;;;20.40;99.90;;;;;;4973710;28;20189;-65
2022/04/05 08:29:30;;;;;;;48.40;6.80;;;20.50;99.90;;;;;;4992199;28;20192;-66
2022/04/05 08:32:07;;;;;;;31.47;6.20;;;20.60;99.90;;;;;;4991807;28;20224;-66
2022/04/05 08:34:35;;;;;;;40.90;7.00;;;20.70;99.90;;;;;;4983033;28;20197;-67
2022/04/05 08:37:01;;;;;;;61.27;8.03;;;20.70;99.90;;;;;;4981345;28;20252;-67
2022/04/05 08:39:28;;;;;;;53.07;7.03;;;20.80;99.90;;;;;;4992080;28;20733;-64
2022/04/05 08:41:57;;;;;;;49.13;7.90;;;20.90;99.90;;;;;;4996522;28;20992;-65
2022/04/05 08:44:25;;;;;;;59.43;7.77;;;21.00;99.90;;;;;;4988863;28;20192;-66
2022/04/05 08:46:52;;;;;;;44.37;7.20;;;21.10;99.90;;;;;;4988233;28;20277;-64
2022/04/05 08:49:25;;;;;;;43.13;8.17;;;21.20;99.90;;;;;;4989161;28;20255;-65
2022/04/05 08:51:53;;;;;;;38.00;6.13;;;21.30;99.90;;;;;;4967780;28;20181;-65
2022/04/05 08:54:21;;;;;;;41.73;6.43;;;21.30;99.90;;;;;;4988292;28;20185;-67
2022/04/05 08:56:48;;;;;;;43.53;7.10;;;21.40;99.90;;;;;;4990557;28;20585;-65
2022/04/05 08:59:17;;;;;;;42.13;6.83;;;21.60;99.90;;;;;;4986553;28;20182;-66
2022/04/05 09:01:44;;;;;;;45.30;6.90;;;21.90;99.90;;;;;;5006414;28;20247;-66
2022/04/05 09:04:10;;;;;;;49.47;6.77;;;22.00;99.90;;;;;;4990011;28;20736;-66
2022/04/05 09:06:37;;;;;;;45.17;6.78;;;22.20;99.90;;;;;;4983586;28;20204;-65
2022/04/05 09:09:18;;;;;;;48.53;7.40;;;22.40;99.90;;;;;;4987320;28;20192;-66
2022/04/05 09:11:54;;;;;;;63.90;7.47;;;22.70;99.70;;;;;;4984025;28;20240;-66
2022/04/05 09:14:41;;;;;;;45.10;7.00;;;22.90;96.60;;;;;;4982023;28;20196;-66
2022/04/05 09:17:12;;;;;;;62.30;7.65;;;23.10;95.20;;;;;;4964583;28;20197;-65
2022/04/05 09:19:45;;;;;;;52.90;6.87;;;23.30;93.90;;;;;;4983980;28;20201;-66
2022/04/05 09:22:12;;;;;;;57.60;7.32;;;23.40;94.90;;;;;;5001975;28;20721;-66
2022/04/05 09:24:45;;;;;;;49.65;7.28;;;23.70;94.00;;;;;;4999873;28;20210;-67
2022/04/05 09:27:12;;;;;;;49.53;6.43;;;23.80;92.80;;;;;;4976683;28;20255;-66
2022/04/05 09:29:50;;;;;;;41.50;7.07;;;24.10;90.90;;;;;;4986242;28;20240;-67
2022/04/05 09:32:39;;;;;;;41.03;6.13;;;24.30;99.90;;;;;;4980914;28;20726;-67
2022/04/05 09:35:07;;;;;;;41.78;6.57;;;24.50;99.90;;;;;;4981405;28;20535;-65
2022/04/05 09:37:38;;;;;;;36.83;6.43;;;24.80;99.90;;;;;;4985270;28;20308;-66
2022/04/05 09:40:32;;;;;;;58.25;7.05;;;24.90;99.90;;;;;;4987643;28;20280;-67
2022/04/05 09:43:14;;;;;;;47.72;6.72;;;25.10;99.90;;;;;;4981776;28;20253;-67
2022/04/05 09:46:01;;;;;;;51.90;7.72;;;25.40;99.90;;;;;;4983608;28;20277;-66
2022/04/05 09:48:35;;;;;;;53.53;6.80;;;25.50;99.90;;;;;;4986102;28;20189;-66
2022/04/05 09:51:17;;;;;;;52.53;7.05;;;25.70;90.00;;;;;;4986343;28;20189;-66
2022/04/05 09:53:56;;;;;;;40.45;6.97;;;25.70;87.90;;;;;;4989967;28;20205;-67
2022/04/05 09:56:38;;;;;;;59.22;7.03;;;26.00;90.50;;;;;;4987074;28;20185;-65
2022/04/05 09:59:14;;;;;;;44.35;6.55;;;26.30;89.30;;;;;;4986801;28;20204;-67
2022/04/05 10:01:41;;;;;;;43.53;7.28;;;26.60;90.20;;;;;;4986714;28;20235;-66
2022/04/05 10:04:18;;;;;;;44.47;6.22;;;26.90;87.40;;;;;;4986407;28;20188;-65
2022/04/05 10:06:47;;;;;;;72.68;7.80;;;27.00;88.60;;;;;;4988253;28;20200;-66
2022/04/05 10:09:17;;;;;;;51.10;6.80;;;27.00;86.60;;;;;;4986048;28;20549;-65
2022/04/05 10:11:45;;;;;;;57.95;7.85;;;27.00;85.30;;;;;;4989027;28;20392;-66
2022/04/05 10:14:20;;;;;;;60.72;8.00;;;27.50;87.20;;;;;;4983594;28;20277;-66
2022/04/05 10:16:50;;;;;;;46.72;7.03;;;28.80;83.20;;;;;;4985272;28;20209;-66
2022/04/05 10:19:19;;;;;;;50.97;7.53;;;30.10;81.80;;;;;;4987637;28;20193;-67
2022/04/05 10:21:49;;;;;;;49.13;6.95;;;30.80;78.40;;;;;;4988851;28;20189;-66
2022/04/05 10:24:17;;;;;;;45.47;7.28;;;29.80;79.50;;;;;;4989735;28;20202;-65
2022/04/05 10:26:49;;;;;;;36.65;7.32;;;29.00;80.70;;;;;;4991183;28;20221;-65
2022/04/05 10:29:18;;;;;;;45.42;6.97;;;28.50;81.00;;;;;;4990608;28;20185;-66
2022/04/05 10:32:18;;;;;;;66.35;9.75;;;28.10;83.90;;;;;;4985899;28;20665;-66
2022/04/05 10:34:53;;;;;;;56.88;9.77;;;27.60;94.10;;;;;;4988806;28;20271;-65
2022/04/05 10:37:38;;;;;;;45.03;7.40;;;27.20;95.00;;;;;;4984208;28;20185;-66
2022/04/05 10:40:06;;;;;;;47.28;7.65;;;27.00;92.50;;;;;;5004891;28;20533;-65
2022/04/05 10:42:47;;;;;;;54.85;7.90;;;27.00;93.20;;;;;;4987512;28;20210;-66
2022/04/05 10:45:23;;;;;;;50.75;7.60;;;26.90;87.70;;;;;;4989117;28;20277;-65
2022/04/05 10:48:16;;;;;;;49.65;7.45;;;26.90;81.40;;;;;;4986616;28;20188;-67
2022/04/05 10:50:47;;;;;;;36.17;6.68;;;26.90;81.20;;;;;;4975633;28;20693;-67
2022/04/05 10:53:31;;;;;;;47.20;7.03;;;26.90;82.20;;;;;;4985455;28;20205;-64
2022/04/05 10:56:04;;;;;;;40.75;6.25;;;26.90;82.60;;;;;;5003936;28;20236;-67
2022/04/05 10:58:35;;;;;;;49.08;7.45;;;26.90;82.50;;;;;;5002537;28;20186;-66
2022/04/05 11:01:21;;;;;;;46.70;7.43;;;26.90;84.40;;;;;;4990587;28;20201;-64
2022/04/05 11:04:14;;;;;;;41.78;6.40;;;26.80;81.80;;;;;;4985193;28;20279;-66
2022/04/05 11:06:59;;;;;;;49.03;7.03;;;26.80;81.60;;;;;;4987791;28;20193;-66
2022/04/05 11:09:32;;;;;;;57.45;7.25;;;26.80;83.60;;;;;;4985409;28;20207;-64
2022/04/05 11:12:08;;;;;;;55.65;8.30;;;26.70;80.30;;;;;;4999000;28;20763;-66
2022/04/05 11:14:39;;;;;;;59.67;7.05;;;26.60;81.20;;;;;;4990638;28;20247;-66
2022/04/05 11:17:07;;;;;;;49.75;7.03;;;26.60;80.10;;;;;;4990458;28;20217;-65
2022/04/05 11:19:42;;;;;;;53.15;7.75;;;26.60;81.00;;;;;;4995485;28;20880;-65
2022/04/05 11:22:20;;;;;;;50.63;6.70;;;26.50;75.80;;;;;;4987690;28;20210;-65
2022/04/05 11:25:00;;;;;;;54.42;7.63;;;26.40;79.80;;;;;;4982879;28;20285;-65
2022/04/05 11:27:45;;;;;;;49.08;7.75;;;26.40;80.20;;;;;;4987058;28;20320;-66
2022/04/05 11:30:26;;;;;;;52.38;6.85;;;26.30;79.80;;;;;;4982979;28;20178;-65
2022/04/05 11:33:33;;;;;;;46.65;6.65;;;26.30;80.90;;;;;;4987045;28;20304;-66
2022/04/05 11:36:13;;;;;;;47.92;6.90;;;26.30;81.60;;;;;;4998314;28;20219;-67
2022/04/05 11:38:42;;;;;;;51.85;6.25;;;26.40;78.50;;;;;;4987696;28;20280;-67
2022/04/05 11:41:22;;;;;;;57.78;6.88;;;26.40;80.30;;;;;;4994842;28;20527;-65
2022/04/05 11:44:01;;;;;;;41.88;6.93;;;26.40;82.30;;;;;;4988668;28;20217;-66
2022/04/05 11:46:31;;;;;;;54.15;7.47;;;26.40;80.60;;;;;;4983630;28;20216;-65
2022/04/05 11:49:02;;;;;;;51.83;7.50;;;26.30;80.80;;;;;;4978832;28;20194;-65
2022/04/05 11:51:34;;;;;;;40.88;7.53;;;26.30;81.60;;;;;;4986468;28;20643;-65
2022/04/05 11:54:11;;;;;;;38.75;7.22;;;26.30;80.70;;;;;;4981327;28;20229;-66
2022/04/05 11:56:43;;;;;;;48.42;6.78;;;26.30;83.20;;;;;;4983172;28;20220;-65
2022/04/05 11:59:15;;;;;;;44.15;6.57;;;26.20;79.90;;;;;;4981778;28;20197;-65
2022/04/05 12:01:47;;;;;;;45.95;6.63;;;26.20;79.60;;;;;;4982867;28;20208;-67
2022/04/05 12:04:18;;;;;;;48.80;6.75;;;26.10;79.90;;;;;;4986976;28;20198;-66
2022/04/05 12:06:47;;;;;;;47.08;7.18;;;26.10;81.90;;;;;;4983675;28;20247;-65
2022/04/05 12:09:19;;;;;;;47.17;6.50;;;26.10;83.20;;;;;;4982910;28;20181;-65
2022/04/05 12:11:50;;;;;;;44.30;7.53;;;26.00;79.20;;;;;;4984274;28;20188;-65
2022/04/05 12:14:28;;;;;;;40.05;6.60;;;26.00;79.90;;;;;;4962126;28;20718;-66
2022/04/05 12:17:00;;;;;;;48.65;6.60;;;25.90;81.10;;;;;;4982605;28;20343;-64
2022/04/05 12:19:47;;;;;;;49.72;8.07;;;25.80;81.60;;;;;;4987668;28;20197;-65
2022/04/05 12:22:16;;;;;;;53.35;7.30;;;25.70;83.30;;;;;;4986986;28;20205;-64
2022/04/05 12:24:53;;;;;;;45.45;6.95;;;25.70;89.10;;;;;;4986178;28;20193;-66
2022/04/05 12:27:23;;;;;;;45.42;6.80;;;25.70;84.00;;;;;;4982335;28;20268;-65
2022/04/05 12:29:55;;;;;;;39.92;6.25;;;25.80;81.60;;;;;;4989438;28;20212;-65
2022/04/05 12:32:21;;;;;;;56.40;7.68;;;25.80;80.20;;;;;;4988722;28;20197;-66
2022/04/05 12:34:48;;;;;;;51.42;6.40;;;25.80;82.10;;;;;;4981032;28;20182;-66
2022/04/05 12:37:16;;;;;;;42.15;6.60;;;25.80;82.50;;;;;;4989328;28;20200;-66
2022/04/05 12:39:47;;;;;;;49.05;7.10;;;25.70;84.00;;;;;;4989891;28;20208;-65
2022/04/05 12:42:14;;;;;;;45.05;7.30;;;25.70;83.70;;;;;;4971137;28;20696;-66
2022/04/05 12:44:44;;;;;;;70.80;9.68;;;25.70;92.50;;;;;;4987323;28;20185;-65
2022/04/05 12:47:14;;;;;;;54.65;8.98;;;25.70;95.60;;;;;;4989181;28;20589;-64
2022/04/05 12:49:51;;;;;;;51.65;8.90;;;25.60;96.30;;;;;;4987134;28;20204;-66
2022/04/05 12:52:28;;;;;;;61.58;8.60;;;25.50;96.90;;;;;;4989655;28;20203;-65